Time;durP1;ratioP1;P1;durP2;ratioP2;P2;SDS_P1;SDS_P2;PMS_P1;PMS_P2;Temp;Humidity;BMP_temperature;BMP_pressure;BME280_temperature;BME280_humidity;BME280_pressure;Samples;Min_cycle;Max_cycle;Signal;HPM_P1;HPM_P2
2022/07/04 00:00:17;;;;;;;0.50;0.50;;;;;;;16.54;87.68;100365.84;5125634;28;20039;-69
2022/07/04 00:02:44;;;;;;;0.20;0.20;;;;;;;16.53;87.67;100364.16;5125981;28;20046;-67
2022/07/04 00:05:10;;;;;;;0.20;0.20;;;;;;;16.48;87.50;100367.75;5125815;28;20024;-68
2022/07/04 00:07:49;;;;;;;0.40;0.40;;;;;;;16.24;87.65;100345.88;5125592;28;20024;-69
2022/07/04 00:10:20;;;;;;;0.20;0.20;;;;;;;16.34;88.01;100378.72;5125612;28;20016;-69
2022/07/04 00:12:46;;;;;;;0.50;0.50;;;;;;;16.33;87.90;100384.88;5125543;28;20355;-68
2022/07/04 00:15:12;;;;;;;0.20;0.20;;;;;;;16.31;88.27;100384.06;5125460;28;20020;-69
2022/07/04 00:17:37;;;;;;;0.20;0.20;;;;;;;16.26;88.52;100378.13;5125528;28;20119;-69
2022/07/04 00:20:05;;;;;;;0.20;0.20;;;;;;;16.23;88.75;100380.81;5125413;28;20201;-70
2022/07/04 00:22:31;;;;;;;0.57;0.57;;;;;;;16.05;89.24;100353.47;5125261;28;20034;-73
2022/07/04 00:24:56;;;;;;;0.40;0.40;;;;;;;16.19;89.00;100374.84;5124655;28;20048;-73
2022/07/04 00:27:22;;;;;;;0.28;0.28;;;;;;;16.01;88.23;100373.66;5125008;28;20479;-72
2022/07/04 00:29:47;;;;;;;0.93;0.93;;;;;;;15.78;87.35;100367.38;5124919;28;20355;-72
2022/07/04 00:32:13;;;;;;;0.20;0.20;;;;;;;15.50;87.98;100376.03;5125130;28;20026;-72
2022/07/04 00:34:38;;;;;;;0.20;0.20;;;;;;;15.29;88.12;100367.91;5125073;28;20024;-71
2022/07/04 00:37:04;;;;;;;0.20;0.20;;;;;;;15.10;88.43;100368.44;5125004;28;20035;-71
2022/07/04 00:39:30;;;;;;;0.30;0.30;;;;;;;14.94;89.25;100364.53;5124701;28;20110;-70
2022/07/04 00:41:55;;;;;;;0.20;0.20;;;;;;;14.79;90.29;100371.03;5124807;28;20508;-71
2022/07/04 00:44:21;;;;;;;0.20;0.20;;;;;;;14.64;90.72;100362.69;5124775;28;20072;-72
2022/07/04 00:46:47;;;;;;;0.20;0.20;;;;;;;14.58;91.28;100368.06;5124894;28;20639;-71
2022/07/04 00:49:14;;;;;;;1.30;1.20;;;;;;;14.50;91.72;100365.66;5124618;28;20094;-70
2022/07/04 00:51:41;;;;;;;0.77;0.77;;;;;;;14.29;92.39;100351.38;5124602;28;20031;-70
2022/07/04 00:54:09;;;;;;;0.20;0.20;;;;;;;14.34;93.33;100370.41;5124509;28;20030;-71
2022/07/04 00:56:36;;;;;;;0.20;0.20;;;;;;;14.31;93.87;100360.03;5124493;28;20049;-71
2022/07/04 00:59:02;;;;;;;0.35;0.35;;;;;;;14.31;94.57;100358.28;5124084;28;20047;-71
2022/07/04 01:01:27;;;;;;;0.28;0.28;;;;;;;14.31;94.95;100346.97;5124555;28;20030;-71
2022/07/04 01:03:53;;;;;;;0.20;0.20;;;;;;;14.36;95.41;100338.13;5105952;28;20048;-72
2022/07/04 01:06:19;;;;;;;0.20;0.20;;;;;;;14.44;95.75;100335.31;5124608;28;20024;-71
2022/07/04 01:08:45;;;;;;;0.20;0.20;;;;;;;14.47;95.38;100323.94;5124249;28;20436;-71
2022/07/04 01:11:11;;;;;;;0.30;0.30;;;;;;;14.45;95.67;100310.94;5124214;28;20024;-71
2022/07/04 01:13:37;;;;;;;0.20;0.20;;;;;;;14.58;95.97;100316.69;5124322;28;20023;-70
2022/07/04 01:16:03;;;;;;;0.30;0.30;;;;;;;14.66;95.66;100310.38;5124160;28;20033;-71
2022/07/04 01:18:29;;;;;;;0.20;0.20;;;;;;;14.71;95.13;100316.34;5124319;28;20045;-71
2022/07/04 01:20:55;;;;;;;0.30;0.30;;;;;;;14.70;95.54;100304.16;5124322;28;20020;-71
2022/07/04 01:23:20;;;;;;;0.30;0.30;;;;;;;14.74;95.43;100326.72;5124319;28;20745;-71
2022/07/04 01:25:46;;;;;;;0.20;0.20;;;;;;;14.73;95.68;100319.75;5123998;28;20509;-71
2022/07/04 01:28:12;;;;;;;0.20;0.20;;;;;;;14.76;95.79;100314.44;5123978;28;20022;-71
2022/07/04 01:30:37;;;;;;;0.22;0.22;;;;;;;14.79;95.73;100313.53;5123873;28;20019;-71
2022/07/04 01:33:04;;;;;;;0.85;0.85;;;;;;;14.77;96.14;100329.25;5123992;28;20042;-71
2022/07/04 01:35:30;;;;;;;0.20;0.20;;;;;;;14.77;95.78;100331.00;5124011;28;20058;-71
2022/07/04 01:37:55;;;;;;;0.20;0.20;;;;;;;14.62;95.81;100333.97;5123210;28;20047;-70
2022/07/04 01:40:21;;;;;;;0.20;0.20;;;;;;;14.60;95.59;100338.38;5123757;28;20055;-70
2022/07/04 01:42:46;;;;;;;0.20;0.20;;;;;;;14.60;95.47;100346.22;5105753;28;20463;-70
2022/07/04 01:45:12;;;;;;;0.20;0.20;;;;;;;14.57;95.82;100338.47;5123775;28;20419;-70
2022/07/04 01:47:38;;;;;;;0.20;0.20;;;;;;;14.46;96.34;100333.53;5124040;28;20020;-70
2022/07/04 01:50:06;;;;;;;0.25;0.25;;;;;;;14.39;96.21;100331.97;5123387;28;20019;-71
2022/07/04 01:52:32;;;;;;;0.20;0.20;;;;;;;14.27;96.40;100329.66;5124312;28;20088;-71
2022/07/04 01:54:58;;;;;;;0.20;0.20;;;;;;;14.32;96.15;100339.09;5123963;28;20031;-70
2022/07/04 01:57:23;;;;;;;0.20;0.20;;;;;;;14.29;96.19;100349.63;5123855;28;20043;-70
2022/07/04 02:02:33;;;;;;;0.20;0.20;;;;;;;14.07;96.54;100342.34;5123996;28;20053;-70
2022/07/04 02:04:58;;;;;;;0.20;0.20;;;;;;;14.17;96.74;100355.16;5123806;28;20027;-70
2022/07/04 02:07:23;;;;;;;0.20;0.20;;;;;;;14.17;97.17;100350.78;5123648;28;20034;-70
2022/07/04 02:09:49;;;;;;;0.20;0.20;;;;;;;14.19;97.21;100350.75;5123749;28;20016;-70
2022/07/04 02:14:58;;;;;;;0.30;0.30;;;;;;;14.28;97.68;100366.19;5123429;28;20057;-71
2022/07/04 02:17:24;;;;;;;0.20;0.20;;;;;;;14.34;97.58;100365.19;5105195;28;20051;-70
2022/07/04 02:19:50;;;;;;;0.20;0.20;;;;;;;14.35;97.48;100362.53;5123211;28;20126;-69
2022/07/04 02:22:15;;;;;;;0.20;0.20;;;;;;;14.35;97.51;100359.94;5123315;28;20380;-70
2022/07/04 02:24:41;;;;;;;0.20;0.20;;;;;;;14.29;97.77;100349.63;5123182;28;20050;-69
2022/07/04 02:27:08;;;;;;;0.20;0.20;;;;;;;14.42;97.73;100362.38;5123066;28;20049;-70
2022/07/04 02:29:33;;;;;;;0.20;0.20;;;;;;;14.43;97.65;100353.63;5123245;28;20027;-70
2022/07/04 02:31:59;;;;;;;0.20;0.20;;;;;;;14.43;97.48;100349.28;5123518;28;20026;-70
2022/07/04 02:34:24;;;;;;;0.20;0.20;;;;;;;14.37;97.21;100345.09;5123504;28;20028;-70
2022/07/04 02:36:50;;;;;;;0.22;0.22;;;;;;;14.34;97.58;100341.69;5123698;28;20034;-70
2022/07/04 02:39:15;;;;;;;0.20;0.20;;;;;;;14.30;97.70;100343.50;5123253;28;20100;-69
2022/07/04 02:41:41;;;;;;;0.20;0.20;;;;;;;14.29;97.68;100351.38;5123335;28;20101;-69
2022/07/04 02:44:06;;;;;;;0.30;0.30;;;;;;;14.20;97.86;100331.59;5123019;28;20026;-68
2022/07/04 02:46:32;;;;;;;0.20;0.20;;;;;;;14.18;97.77;100326.41;5123411;28;20028;-69
2022/07/04 02:48:58;;;;;;;0.50;0.50;;;;;;;14.24;97.58;100336.69;5124778;28;20031;-70
2022/07/04 02:51:24;;;;;;;0.20;0.20;;;;;;;14.23;97.80;100332.34;5126898;28;20252;-70
2022/07/04 02:53:49;;;;;;;0.20;0.20;;;;;;;14.13;97.53;100321.31;5126941;28;20023;-69
2022/07/04 02:56:15;;;;;;;0.20;0.20;;;;;;;14.19;97.72;100332.47;5108639;28;20038;-69
2022/07/04 02:58:40;;;;;;;0.35;0.35;;;;;;;14.17;98.13;100336.88;5126881;28;20028;-68
2022/07/04 03:01:05;;;;;;;0.30;0.30;;;;;;;14.18;97.84;100338.59;5126560;28;20024;-70
2022/07/04 03:03:31;;;;;;;0.30;0.30;;;;;;;14.18;98.02;100333.38;5126778;28;20020;-69
2022/07/04 03:05:56;;;;;;;0.20;0.20;;;;;;;14.19;98.39;100324.63;5126625;28;20016;-69
2022/07/04 03:08:21;;;;;;;0.20;0.20;;;;;;;14.21;98.17;100313.28;5126621;28;20076;-70
2022/07/04 03:10:49;;;;;;;0.20;0.20;;;;;;;14.21;98.37;100310.66;5126552;28;20455;-69
2022/07/04 03:13:15;;;;;;;0.20;0.20;;;;;;;14.22;98.42;100311.50;5126538;28;20046;-70
2022/07/04 03:15:40;;;;;;;0.20;0.20;;;;;;;14.20;98.14;100306.31;5126212;28;20387;-69
2022/07/04 03:18:05;;;;;;;0.20;0.20;;;;;;;14.18;98.22;100294.22;5126446;28;20435;-70
2022/07/04 03:20:31;;;;;;;0.20;0.20;;;;;;;14.10;98.21;100281.34;5126285;28;20083;-69
2022/07/04 03:22:56;;;;;;;0.22;0.22;;;;;;;14.18;98.21;100299.44;5126589;28;20094;-69
2022/07/04 03:25:21;;;;;;;0.20;0.20;;;;;;;14.12;97.97;100300.44;5126090;28;20059;-69
2022/07/04 03:27:47;;;;;;;0.20;0.20;;;;;;;14.06;98.28;100305.78;5126222;28;20031;-69
2022/07/04 03:30:12;;;;;;;0.20;0.20;;;;;;;14.03;98.58;100314.56;5126024;28;20041;-69
2022/07/04 03:32:38;;;;;;;0.20;0.20;;;;;;;13.99;98.83;100310.34;5126163;28;20043;-70
2022/07/04 03:35:05;;;;;;;0.30;0.30;;;;;;;14.02;98.74;100306.78;5126228;28;20293;-70
2022/07/04 03:37:30;;;;;;;0.20;0.20;;;;;;;14.03;98.87;100301.53;5126172;28;20024;-70
2022/07/04 03:39:56;;;;;;;0.20;0.20;;;;;;;14.08;99.44;100304.88;5125983;28;20149;-70
2022/07/04 03:42:21;;;;;;;0.20;0.20;;;;;;;14.12;99.28;100293.47;5126175;28;20258;-70
2022/07/04 03:44:47;;;;;;;0.20;0.20;;;;;;;14.08;99.55;100289.22;5125922;28;20478;-71
2022/07/04 03:47:12;;;;;;;0.20;0.20;;;;;;;14.11;98.99;100288.28;5126030;28;20083;-70
2022/07/04 03:49:37;;;;;;;0.20;0.20;;;;;;;14.15;99.14;100296.91;5125758;28;20016;-70
2022/07/04 03:52:03;;;;;;;0.20;0.20;;;;;;;14.19;99.42;100293.31;5126313;28;20031;-70
2022/07/04 03:54:29;;;;;;;0.20;0.20;;;;;;;14.23;99.53;100294.97;5125755;28;20046;-69
2022/07/04 03:56:54;;;;;;;0.30;0.30;;;;;;;14.30;99.59;100295.63;5125969;28;20031;-70
2022/07/04 03:59:20;;;;;;;0.50;0.50;;;;;;;14.35;99.67;100296.38;5125598;28;20030;-68
2022/07/04 04:01:45;;;;;;;0.20;0.20;;;;;;;14.37;99.72;100291.97;5124831;28;20019;-70
2022/07/04 04:06:55;;;;;;;0.20;0.20;;;;;;;14.55;100.00;100293.25;5125755;28;20485;-71
2022/07/04 04:09:20;;;;;;;0.20;0.20;;;;;;;14.57;100.00;100294.06;5125379;28;20043;-69
2022/07/04 04:11:46;;;;;;;0.20;0.20;;;;;;;14.62;99.96;100297.41;5125373;28;20375;-70
2022/07/04 04:14:12;;;;;;;0.20;0.20;;;;;;;14.69;100.00;100295.50;5125195;28;20031;-72
2022/07/04 04:16:38;;;;;;;0.20;0.20;;;;;;;14.72;99.95;100294.53;5125491;28;20049;-71
2022/07/04 04:19:04;;;;;;;0.20;0.20;;;;;;;14.66;99.75;100289.47;5125417;28;20031;-71
2022/07/04 04:21:29;;;;;;;0.22;0.22;;;;;;;14.72;99.57;100294.53;5125056;28;20020;-71
2022/07/04 04:23:54;;;;;;;0.25;0.25;;;;;;;14.58;99.79;100274.88;5125252;28;20079;-73
2022/07/04 04:26:20;;;;;;;0.30;0.30;;;;;;;14.66;99.69;100299.94;5124869;28;20049;-69
2022/07/04 04:28:45;;;;;;;0.20;0.20;;;;;;;14.53;99.55;100279.38;5125124;28;20023;-69
2022/07/04 04:31:10;;;;;;;0.20;0.20;;;;;;;14.64;99.62;100305.19;5124763;28;20020;-72
2022/07/04 04:33:36;;;;;;;0.30;0.30;;;;;;;14.64;99.69;100307.81;5125132;28;20543;-71
2022/07/04 04:36:01;;;;;;;0.20;0.20;;;;;;;14.63;99.44;100309.56;5125065;28;20027;-71
2022/07/04 04:38:27;;;;;;;0.20;0.20;;;;;;;14.66;99.65;100308.66;5125459;28;20075;-71
2022/07/04 04:40:52;;;;;;;0.30;0.30;;;;;;;14.61;98.95;100300.94;5124931;28;20019;-69
2022/07/04 04:43:18;;;;;;;0.20;0.20;;;;;;;14.56;99.07;100301.94;5126295;28;20019;-69
2022/07/04 04:45:43;;;;;;;0.20;0.20;;;;;;;14.52;98.98;100311.59;5126019;28;20028;-70
2022/07/04 04:48:09;;;;;;;7.40;3.22;;;;;;;14.50;99.41;100302.97;5124828;28;20024;-70
2022/07/04 04:50:35;;;;;;;0.20;0.20;;;;;;;14.50;99.99;100295.13;5124468;28;20019;-69
2022/07/04 04:53:00;;;;;;;0.20;0.20;;;;;;;14.60;100.00;100293.13;5124666;28;20028;-69
2022/07/04 04:55:25;;;;;;;0.30;0.30;;;;;;;14.65;99.94;100299.06;5124728;28;20053;-70
2022/07/04 04:57:51;;;;;;;0.28;0.28;;;;;;;14.69;100.00;100305.94;5124772;28;20015;-70
2022/07/04 05:00:16;;;;;;;0.20;0.20;;;;;;;14.71;100.00;100306.75;5124255;28;20502;-70
2022/07/04 05:02:42;;;;;;;0.20;0.20;;;;;;;14.63;99.63;100296.50;5106281;28;20422;-71
2022/07/04 05:05:07;;;;;;;0.20;0.20;;;;;;;14.65;99.71;100306.06;5124531;28;20016;-71
2022/07/04 05:07:33;;;;;;;0.75;0.75;;;;;;;14.60;99.62;100303.59;5124538;28;20020;-70
2022/07/04 05:09:59;;;;;;;0.20;0.20;;;;;;;14.61;99.99;100313.13;5105893;28;20500;-71
2022/07/04 05:12:25;;;;;;;0.20;0.20;;;;;;;14.57;99.61;100304.50;5123999;28;20028;-71
2022/07/04 05:14:51;;;;;;;0.20;0.20;;;;;;;14.54;100.00;100301.97;5124053;28;20019;-71
2022/07/04 05:17:17;;;;;;;0.20;0.20;;;;;;;14.50;100.00;100313.41;5124192;28;20046;-70
2022/07/04 05:19:42;;;;;;;0.20;0.20;;;;;;;14.43;100.00;100317.94;5124169;28;20523;-71
2022/07/04 05:22:10;;;;;;;0.20;0.20;;;;;;;14.42;100.00;100320.59;5124108;28;20020;-71
2022/07/04 05:24:39;;;;;;;0.20;0.20;;;;;;;14.42;100.00;100315.38;5105644;28;20023;-70
2022/07/04 05:27:05;;;;;;;0.20;0.20;;;;;;;14.40;100.00;100318.00;5123753;28;20032;-70
2022/07/04 05:29:30;;;;;;;0.32;0.32;;;;;;;14.42;100.00;100320.59;5123882;28;20020;-70
2022/07/04 05:31:56;;;;;;;0.20;0.20;;;;;;;14.37;100.00;100323.31;5124311;28;20031;-71
2022/07/04 05:34:22;;;;;;;0.30;0.30;;;;;;;14.44;100.00;100326.63;5124289;28;20075;-70
2022/07/04 05:36:47;;;;;;;0.20;0.20;;;;;;;14.50;100.00;100318.63;5123772;28;20026;-69
2022/07/04 05:39:12;;;;;;;0.20;0.20;;;;;;;14.57;100.00;100330.63;5123910;28;20028;-70
2022/07/04 05:41:38;;;;;;;0.55;0.55;;;;;;;14.68;100.00;100325.13;5123704;28;20019;-69
2022/07/04 05:44:03;;;;;;;0.20;0.20;;;;;;;14.81;100.00;100323.06;5123592;28;20023;-68
2022/07/04 05:46:29;;;;;;;0.20;0.20;;;;;;;15.03;100.00;100330.28;5123729;28;20077;-70
2022/07/04 05:48:54;;;;;;;0.22;0.22;;;;;;;15.29;100.00;100333.91;5123876;28;20027;-70
2022/07/04 05:51:20;;;;;;;0.20;0.20;;;;;;;15.47;100.00;100336.91;5123566;28;20131;-70
2022/07/04 05:53:45;;;;;;;0.20;0.20;;;;;;;15.70;100.00;100333.56;5123605;28;20079;-69
2022/07/04 05:56:10;;;;;;;0.20;0.20;;;;;;;15.91;100.00;100338.19;5123414;28;20019;-69
2022/07/04 05:58:36;;;;;;;0.20;0.20;;;;;;;15.93;100.00;100342.47;5123605;28;20051;-69
2022/07/04 06:01:01;;;;;;;0.20;0.20;;;;;;;15.90;100.00;100341.69;5123455;28;20043;-69
2022/07/04 06:03:26;;;;;;;0.20;0.20;;;;;;;15.93;100.00;100346.84;5123465;28;20023;-70
2022/07/04 06:05:53;;;;;;;0.20;0.20;;;;;;;15.79;100.00;100348.16;5122881;28;20046;-69
2022/07/04 06:08:18;;;;;;;0.20;0.20;;;;;;;15.82;100.00;100341.94;5123615;28;20024;-70
2022/07/04 06:10:44;;;;;;;0.20;0.20;;;;;;;16.28;100.00;100338.78;5104956;28;20379;-69
2022/07/04 06:13:09;;;;;;;0.20;0.20;;;;;;;16.93;100.00;100333.06;5123749;28;20028;-69
2022/07/04 06:15:35;;;;;;;0.20;0.20;;;;;;;17.06;100.00;100326.44;5123298;28;20024;-68
2022/07/04 06:18:02;;;;;;;0.20;0.20;;;;;;;17.22;100.00;100339.03;5123520;28;20020;-69
2022/07/04 06:20:27;;;;;;;0.20;0.20;;;;;;;17.73;100.00;100338.84;5123267;28;20079;-69
2022/07/04 06:22:53;;;;;;;0.20;0.20;;;;;;;18.78;100.00;100339.81;5123564;28;20034;-67
2022/07/04 06:25:20;;;;;;;0.20;0.20;;;;;;;19.77;100.00;100342.38;5127002;28;20066;-68
2022/07/04 06:27:48;;;;;;;0.20;0.20;;;;;;;20.68;100.00;100336.16;5127546;28;20035;-66
2022/07/04 06:30:15;;;;;;;0.10;0.10;;;;;;;21.44;100.00;100338.31;5126920;28;20046;-68
2022/07/04 06:32:50;;;;;;;0.10;0.10;;;;;;;21.90;96.25;100332.25;5127117;28;20023;-68
2022/07/04 06:38:05;;;;;;;0.10;0.10;;;;;;;21.82;89.08;100341.59;5127367;28;20035;-69
2022/07/04 06:40:31;;;;;;;0.10;0.10;;;;;;;22.01;86.24;100347.50;5126960;28;20031;-68
2022/07/04 06:42:56;;;;;;;0.10;0.10;;;;;;;22.27;88.81;100342.50;5127188;28;20049;-67
2022/07/04 06:45:22;;;;;;;0.20;0.20;;;;;;;22.62;85.81;100340.53;5126826;28;20030;-67
2022/07/04 06:47:47;;;;;;;0.10;0.10;;;;;;;22.84;85.19;100341.84;5126912;28;20016;-67
2022/07/04 06:50:13;;;;;;;0.10;0.10;;;;;;;23.31;87.16;100326.56;5126783;28;20050;-67
2022/07/04 06:52:39;;;;;;;0.15;0.15;;;;;;;23.51;87.74;100338.56;5126902;28;20022;-66
2022/07/04 06:55:06;;;;;;;0.10;0.10;;;;;;;23.46;78.01;100330.06;5127087;28;20337;-66
2022/07/04 06:57:32;;;;;;;0.17;0.17;;;;;;;23.34;82.08;100336.13;5126790;28;20027;-66
2022/07/04 06:59:57;;;;;;;0.10;0.10;;;;;;;23.03;78.94;100315.09;5126395;28;20023;-67
2022/07/04 07:02:23;;;;;;;0.10;0.10;;;;;;;22.82;71.10;100328.72;5126487;28;20043;-66
2022/07/04 07:04:48;;;;;;;0.10;0.10;;;;;;;22.19;67.81;100336.78;5126664;28;20062;-66
2022/07/04 07:07:14;;;;;;;2.55;1.45;;;;;;;21.57;67.79;100332.34;5126620;28;20081;-66
2022/07/04 07:09:39;;;;;;;0.20;0.20;;;;;;;20.93;67.75;100334.88;5126465;28;20022;-66
2022/07/04 07:12:04;;;;;;;0.10;0.10;;;;;;;21.02;72.37;100330.88;5126556;28;20020;-66
2022/07/04 07:14:30;;;;;;;0.10;0.10;;;;;;;21.33;74.17;100341.56;5126196;28;20034;-67
2022/07/04 07:16:55;;;;;;;0.20;0.20;;;;;;;21.43;74.58;100336.63;5126254;28;20360;-67
2022/07/04 07:19:21;;;;;;;0.10;0.10;;;;;;;21.25;71.70;100339.34;5126115;28;20020;-67
2022/07/04 07:21:46;;;;;;;0.20;0.20;;;;;;;21.20;69.79;100336.09;5126101;28;20494;-66
2022/07/04 07:24:11;;;;;;;0.13;0.13;;;;;;;20.98;67.89;100326.72;5107684;28;20024;-67
2022/07/04 07:26:37;;;;;;;0.10;0.10;;;;;;;20.82;70.58;100334.56;5125932;28;20047;-67
2022/07/04 07:29:02;;;;;;;0.20;0.20;;;;;;;20.73;68.25;100343.81;5125888;28;20019;-67
2022/07/04 07:31:27;;;;;;;0.10;0.10;;;;;;;20.66;69.51;100323.97;5125977;28;20028;-66
2022/07/04 07:33:53;;;;;;;3.20;1.65;;;;;;;20.56;68.51;100342.91;5125713;28;20045;-66
2022/07/04 07:36:18;;;;;;;0.10;0.10;;;;;;;20.77;69.44;100339.22;5125950;28;20032;-66
2022/07/04 07:38:43;;;;;;;0.20;0.20;;;;;;;21.27;66.23;100341.91;5126084;28;20034;-67
2022/07/04 07:41:10;;;;;;;0.10;0.10;;;;;;;21.47;66.22;100337.31;5125768;28;20024;-66
2022/07/04 07:43:36;;;;;;;0.40;0.40;;;;;;;21.84;68.97;100334.44;5125882;28;20053;-67
2022/07/04 07:46:04;;;;;;;0.28;0.28;;;;;;;22.27;69.78;100328.41;5125568;28;20091;-67
2022/07/04 07:48:30;;;;;;;0.40;0.40;;;;;;;22.16;60.43;100336.97;5126021;28;20023;-67
2022/07/04 07:50:55;;;;;;;0.10;0.10;;;;;;;21.72;61.81;100331.50;5125767;28;20091;-68
2022/07/04 07:53:21;;;;;;;0.10;0.10;;;;;;;21.42;61.70;100340.22;5125697;28;20027;-67
2022/07/04 07:55:46;;;;;;;0.20;0.20;;;;;;;21.95;59.31;100347.03;5125677;28;20019;-67
2022/07/04 07:58:11;;;;;;;0.20;0.20;;;;;;;22.44;62.16;100348.59;5125714;28;20059;-67
2022/07/04 08:00:37;;;;;;;0.10;0.10;;;;;;;22.95;62.35;100349.97;5125190;28;20076;-68
2022/07/04 08:05:47;;;;;;;0.10;0.10;;;;;;;22.90;57.89;100344.97;5125410;28;20072;-67
2022/07/04 08:08:12;;;;;;;0.15;0.15;;;;;;;23.39;58.51;100328.75;5125289;28;20119;-67
2022/07/04 08:10:37;;;;;;;0.43;0.43;;;;;;;23.77;56.07;100353.75;5125017;28;20432;-66
2022/07/04 08:13:04;;;;;;;0.65;0.65;;;;;;;23.50;52.09;100347.47;5125318;28;20463;-67
2022/07/04 08:15:30;;;;;;;0.10;0.10;;;;;;;22.91;50.76;100351.09;5125047;28;20023;-67
2022/07/04 08:17:55;;;;;;;0.20;0.20;;;;;;;22.90;52.48;100354.69;5125162;28;20490;-67
2022/07/04 08:20:20;;;;;;;0.43;0.43;;;;;;;23.22;51.67;100354.50;5124961;28;20015;-67
2022/07/04 08:22:46;;;;;;;0.50;0.50;;;;;;;24.06;55.33;100352.78;5125099;28;20030;-68
2022/07/04 08:25:14;;;;;;;0.10;0.10;;;;;;;24.45;50.61;100353.72;5106360;28;20138;-68
2022/07/04 08:27:39;;;;;;;0.20;0.20;;;;;;;24.25;49.30;100355.91;5125077;28;20095;-67
2022/07/04 08:30:05;;;;;;;0.20;0.20;;;;;;;24.37;49.09;100350.72;5124855;28;20062;-67
2022/07/04 08:32:31;;;;;;;0.10;0.10;;;;;;;24.09;51.00;100347.25;5124940;28;20255;-67
2022/07/04 08:34:56;;;;;;;0.10;0.10;;;;;;;24.02;50.09;100358.28;5124788;28;20220;-67
2022/07/04 08:37:23;;;;;;;0.10;0.10;;;;;;;23.81;48.92;100349.06;5124841;28;20023;-67
2022/07/04 08:39:48;;;;;;;0.10;0.10;;;;;;;24.07;48.79;100349.16;5124217;28;20043;-67
2022/07/04 08:42:17;;;;;;;0.20;0.20;;;;;;;24.11;48.71;100346.19;5106354;28;20026;-67
2022/07/04 08:44:47;;;;;;;0.10;0.10;;;;;;;23.81;48.82;100362.31;5124656;28;20016;-67
2022/07/04 08:47:17;;;;;;;0.20;0.20;;;;;;;24.13;48.38;100360.22;5124155;28;20510;-65
2022/07/04 08:49:49;;;;;;;0.10;0.10;;;;;;;24.62;47.04;100354.34;5105725;28;20077;-67
2022/07/04 08:52:24;;;;;;;0.10;0.10;;;;;;;25.23;47.56;100352.81;5124664;28;20066;-67
2022/07/04 09:00:19;;;;;;;0.10;0.10;;;;;;;25.64;44.71;100347.31;5124190;28;20093;-67
2022/07/04 09:02:45;;;;;;;0.17;0.17;;;;;;;25.21;42.90;100357.38;5105678;28;20550;-66
2022/07/04 09:05:12;;;;;;;0.10;0.10;;;;;;;25.21;44.31;100357.38;5123796;28;20023;-66
2022/07/04 09:07:38;;;;;;;1.38;1.27;;;;;;;24.88;44.76;100362.31;5123116;28;20067;-66
2022/07/04 09:10:03;;;;;;;0.10;0.10;;;;;;;24.18;44.21;100367.88;5123858;28;20026;-67
2022/07/04 09:12:29;;;;;;;0.13;0.13;;;;;;;23.48;45.54;100367.91;5122034;28;20023;-66
2022/07/04 09:14:56;;;;;;;0.10;0.10;;;;;;;22.94;46.76;100371.25;5123805;28;20421;-66
2022/07/04 09:17:22;;;;;;;0.10;0.10;;;;;;;22.62;47.69;100370.44;5124053;28;20047;-66
2022/07/04 09:20:18;;;;;;;0.10;0.10;;;;;;;22.27;48.02;100362.78;5124021;28;20026;-67
2022/07/04 09:22:44;;;;;;;0.20;0.20;;;;;;;21.97;49.29;100364.47;5123994;28;20087;-68
2022/07/04 09:25:16;;;;;;;0.10;0.10;;;;;;;21.98;50.63;100360.88;5124037;28;20048;-67
2022/07/04 09:27:45;;;;;;;0.10;0.10;;;;;;;22.54;48.79;100367.38;5124168;28;20094;-68
2022/07/04 09:30:12;;;;;;;0.32;0.32;;;;;;;22.56;49.13;100367.31;5123563;28;20073;-66
2022/07/04 09:32:38;;;;;;;0.10;0.10;;;;;;;22.31;47.70;100359.03;5123902;28;20107;-66
2022/07/04 09:35:12;;;;;;;0.10;0.10;;;;;;;21.90;49.36;100358.69;5105669;28;20023;-66
2022/07/04 09:37:45;;;;;;;0.10;0.10;;;;;;;21.85;49.15;100362.53;5123673;28;20023;-66
2022/07/04 09:40:21;;;;;;;0.13;0.13;;;;;;;22.07;49.18;100363.94;5123662;28;20538;-67
2022/07/04 09:42:47;;;;;;;0.20;0.20;;;;;;;22.14;47.21;100363.50;5123845;28;20051;-66
2022/07/04 09:45:12;;;;;;;0.10;0.10;;;;;;;22.15;48.57;100365.22;5123440;28;20431;-66
2022/07/04 09:47:40;;;;;;;0.10;0.10;;;;;;;22.25;48.80;100360.22;5123836;28;20051;-67
2022/07/04 09:50:09;;;;;;;0.10;0.10;;;;;;;22.15;49.07;100353.78;5122318;28;20030;-66
2022/07/04 09:52:56;;;;;;;0.10;0.10;;;;;;;21.77;49.23;100363.00;5123628;28;20023;-67
2022/07/04 09:55:27;;;;;;;0.20;0.20;;;;;;;21.51;50.23;100355.56;5123823;28;20031;-66
2022/07/04 09:57:55;;;;;;;0.10;0.10;;;;;;;22.09;50.81;100356.78;5123823;28;20057;-66
2022/07/04 10:00:20;;;;;;;0.10;0.10;;;;;;;23.08;48.65;100354.50;5127182;28;20398;-68
2022/07/04 10:02:46;;;;;;;0.10;0.10;;;;;;;23.21;48.22;100352.78;5127886;28;20053;-67
2022/07/04 10:05:11;;;;;;;0.10;0.10;;;;;;;22.96;46.12;100356.09;5127975;28;20027;-67
2022/07/04 10:07:48;;;;;;;0.10;0.10;;;;;;;22.91;47.23;100356.38;5127667;28;20023;-67
2022/07/04 10:10:23;;;;;;;0.10;0.10;;;;;;;22.58;45.94;100352.19;5127725;28;20525;-66
2022/07/04 10:12:49;;;;;;;0.17;0.17;;;;;;;22.21;46.45;100366.66;5127740;28;20096;-67
2022/07/04 10:15:15;;;;;;;0.20;0.20;;;;;;;21.88;47.45;100362.38;5127655;28;20024;-68
2022/07/04 10:17:41;;;;;;;0.20;0.20;;;;;;;21.46;48.41;100359.38;5127830;28;20065;-68
2022/07/04 10:20:07;;;;;;;0.10;0.10;;;;;;;21.76;49.33;100361.22;5126307;28;20130;-67
2022/07/04 10:22:33;;;;;;;0.10;0.10;;;;;;;21.97;48.49;100361.84;5127477;28;20092;-68
2022/07/04 10:24:59;;;;;;;0.10;0.10;;;;;;;21.79;48.39;100355.81;5127507;28;20105;-68
2022/07/04 10:27:24;;;;;;;6.85;2.50;;;;;;;21.97;49.00;100351.28;5127500;28;20292;-67
2022/07/04 10:29:50;;;;;;;1.55;0.70;;;;;;;22.63;47.81;100347.50;5127284;28;20041;-67
2022/07/04 10:32:16;;;;;;;2.53;2.25;;;;;;;23.00;47.39;100355.00;5108614;28;20049;-67
2022/07/04 10:34:41;;;;;;;0.10;0.10;;;;;;;23.71;46.13;100351.47;5127194;28;20023;-67
2022/07/04 10:37:07;;;;;;;0.10;0.10;;;;;;;24.36;45.31;100354.34;5127549;28;20019;-68
2022/07/04 10:39:32;;;;;;;0.10;0.10;;;;;;;24.82;44.70;100354.78;5127221;28;20031;-66
2022/07/04 10:42:01;;;;;;;0.10;0.10;;;;;;;24.86;44.23;100345.63;5127182;28;20054;-67
2022/07/04 10:44:26;;;;;;;0.10;0.10;;;;;;;24.38;43.29;100350.63;5126938;28;20043;-67
2022/07/04 10:46:56;;;;;;;0.10;0.10;;;;;;;23.75;44.67;100345.88;5127097;28;20026;-67
2022/07/04 10:49:25;;;;;;;0.10;0.10;;;;;;;23.12;45.00;100356.88;5126947;28;20015;-67
2022/07/04 10:51:54;;;;;;;0.10;0.10;;;;;;;22.32;46.61;100351.97;5126839;28;20020;-67
2022/07/04 10:54:32;;;;;;;0.10;0.10;;;;;;;21.88;48.05;100357.94;5126967;28;20053;-67
2022/07/04 10:57:11;;;;;;;0.10;0.10;;;;;;;21.35;49.04;100346.75;5126899;28;20023;-67
2022/07/04 10:59:38;;;;;;;0.20;0.20;;;;;;;21.13;49.24;100366.41;5126544;28;20555;-67
2022/07/04 11:02:03;;;;;;;0.20;0.20;;;;;;;20.88;49.84;100363.25;5126702;28;20042;-67
2022/07/04 11:05:07;;;;;;;0.20;0.20;;;;;;;20.60;50.94;100369.13;5108008;28;20055;-67
2022/07/04 11:07:35;;;;;;;0.20;0.20;;;;;;;20.26;52.91;100367.25;5126643;28;20463;-67
2022/07/04 11:10:20;;;;;;;0.20;0.20;;;;;;;20.00;54.66;100361.47;5126049;28;20024;-68
2022/07/04 11:12:59;;;;;;;0.20;0.20;;;;;;;19.77;56.65;100363.44;5126578;28;20457;-67
2022/07/04 11:15:24;;;;;;;0.20;0.20;;;;;;;19.60;57.24;100360.75;5126257;28;20035;-67
2022/07/04 11:17:51;;;;;;;0.20;0.20;;;;;;;19.32;57.94;100353.22;5126463;28;20024;-68
2022/07/04 11:20:17;;;;;;;0.10;0.10;;;;;;;19.08;57.30;100347.28;5126023;28;20029;-68
2022/07/04 11:22:43;;;;;;;0.28;0.28;;;;;;;18.88;57.54;100351.63;5126273;28;20019;-67
2022/07/04 11:25:11;;;;;;;0.20;0.20;;;;;;;18.70;58.18;100337.53;5125846;28;20104;-67
2022/07/04 11:27:37;;;;;;;0.35;0.35;;;;;;;18.48;60.21;100364.75;5126037;28;20030;-67
2022/07/04 11:30:03;;;;;;;0.20;0.20;;;;;;;18.16;60.75;100366.94;5126026;28;20015;-66
2022/07/04 11:32:33;;;;;;;0.68;0.68;;;;;;;17.61;61.71;100369.06;5126141;28;20028;-67
2022/07/04 11:34:58;;;;;;;0.20;0.20;;;;;;;16.75;63.15;100380.00;5126206;28;20023;-69
2022/07/04 11:37:24;;;;;;;0.20;0.20;;;;;;;16.12;63.54;100389.03;5126182;28;20118;-69
2022/07/04 11:45:49;;;;;;;0.20;0.20;;;;;;;15.07;65.88;100379.00;5126058;28;20039;-69